Terminal Aerodrome Forecast
Issued by NWS

Home | Current Version | Previous Version | Graphics & Text | Print | Product List | Glossary On
Versions: 1 2 3 4 5 6 7 8 9 10 11 12 13 14
000
FTUS45 KGGW 241723
TAFOLF
TAF
KOLF 241723Z 2418/2518 VRB06KT 6SM -SHRA SCT020 OVC035
     FM242100 33018G27KT 4SM SHRA SCT005 OVC015
     FM250200 31014KT P6SM VCSH OVC035
     FM250600 30012KT P6SM SCT070 BKN200=

USA.gov is the U.S. government's official web portal to all federal, state and local government web resources and services.